Time;durP1;ratioP1;P1;durP2;ratioP2;P2;SDS_P1;SDS_P2;PMS_P1;PMS_P2;Temp;Humidity;BMP_temperature;BMP_pressure;BME280_temperature;BME280_humidity;BME280_pressure;Samples;Min_cycle;Max_cycle;Signal;HPM_P1;HPM_P2
2022/12/27 00:01:52;;;;;;;21.10;19.20;;;;;;;7.08;100.00;97722.29;105626;1316;22253;-86
2022/12/27 00:04:21;;;;;;;19.50;17.80;;;;;;;7.08;100.00;97711.00;105650;1302;22828;-89
2022/12/27 00:06:49;;;;;;;19.80;18.00;;;;;;;7.09;100.00;97701.77;104979;1301;22246;-90
2022/12/27 00:09:17;;;;;;;17.90;16.10;;;;;;;7.11;100.00;97697.24;105339;1324;22209;-90
2022/12/27 00:11:45;;;;;;;15.80;14.40;;;;;;;7.13;100.00;97694.34;105317;1323;22178;-89
2022/12/27 00:14:13;;;;;;;19.20;17.40;;;;;;;7.13;100.00;97694.18;105665;1316;22421;-91
2022/12/27 00:16:41;;;;;;;18.10;16.40;;;;;;;7.09;100.00;97703.48;105687;1302;22246;-91
2022/12/27 00:19:09;;;;;;;16.40;14.80;;;;;;;7.09;100.00;97711.05;105406;1324;22202;-92
2022/12/27 00:21:37;;;;;;;16.70;15.20;;;;;;;7.11;100.00;97711.77;105677;1315;22196;-93
2022/12/27 00:24:05;;;;;;;18.70;16.90;;;;;;;7.11;100.00;97708.66;105429;1323;21995;-89
2022/12/27 00:26:34;;;;;;;18.20;16.60;;;;;;;7.11;100.00;97706.58;105735;1308;22655;-91
2022/12/27 00:29:02;;;;;;;18.00;16.30;;;;;;;7.10;100.00;97703.15;105294;1324;22092;-92
2022/12/27 00:31:31;;;;;;;17.80;16.00;;;;;;;7.12;100.00;97701.00;105236;1323;22202;-91
2022/12/27 00:34:02;;;;;;;16.10;14.60;;;;;;;7.19;100.00;97696.38;105382;1324;22224;-92
2022/12/27 00:36:30;;;;;;;16.30;14.80;;;;;;;7.22;100.00;97693.19;104983;1321;22190;-94
2022/12/27 00:38:59;;;;;;;14.80;13.20;;;;;;;7.25;100.00;97696.12;104985;1325;22273;-89
2022/12/27 00:41:27;;;;;;;12.80;11.60;;;;;;;7.29;100.00;97693.13;104978;1324;22971;-91
2022/12/27 00:43:55;;;;;;;12.20;11.00;;;;;;;7.35;100.00;97690.13;105023;1324;22284;-89
2022/12/27 00:46:23;;;;;;;12.00;10.80;;;;;;;7.40;100.00;97681.08;105092;1321;22241;-89
2022/12/27 00:48:52;;;;;;;11.80;10.10;;;;;;;7.42;100.00;97676.17;105368;1323;22175;-92
2022/12/27 00:51:23;;;;;;;10.90;9.80;;;;;;;7.46;99.85;97677.74;105356;1324;22819;-93
2022/12/27 00:53:52;;;;;;;9.30;8.40;;;;;;;7.52;99.65;97680.47;105771;1315;23151;-92
2022/12/27 00:56:29;;;;;;;10.50;9.50;;;;;;;7.61;99.67;97679.52;105754;1302;22239;-92
2022/12/27 00:59:02;;;;;;;10.70;9.60;;;;;;;7.62;99.18;97679.93;105529;1317;22171;-88
2022/12/27 01:01:33;;;;;;;9.00;8.10;;;;;;;7.64;98.58;97674.98;105318;1324;22894;-92
2022/12/27 01:04:03;;;;;;;9.10;7.90;;;;;;;7.65;98.94;97678.69;105633;1305;22165;-89
2022/12/27 01:06:33;;;;;;;9.00;7.70;;;;;;;7.71;98.67;97680.70;105508;1312;23993;-88
2022/12/27 01:09:02;;;;;;;9.30;8.30;;;;;;;7.71;98.65;97679.57;105505;1317;22203;-88
2022/12/27 01:11:31;;;;;;;9.10;8.20;;;;;;;7.75;97.83;97685.01;105651;1316;22182;-89
2022/12/27 01:14:03;;;;;;;8.50;7.60;;;;;;;7.75;97.90;97684.47;105645;1316;22266;-88
2022/12/27 01:16:33;;;;;;;9.10;8.20;;;;;;;7.76;97.85;97681.66;105304;1323;22142;-89
2022/12/27 01:19:01;;;;;;;9.10;8.30;;;;;;;7.77;97.91;97674.42;105285;1324;22241;-87
2022/12/27 01:21:29;;;;;;;8.20;7.40;;;;;;;7.74;97.38;97666.50;105031;1320;22170;-89
2022/12/27 01:23:58;;;;;;;7.90;7.20;;;;;;;7.73;97.27;97672.25;105325;1324;22807;-87
2022/12/27 01:26:26;;;;;;;7.70;6.90;;;;;;;7.76;97.28;97665.05;105497;1310;22220;-85
2022/12/27 01:28:53;;;;;;;8.60;7.80;;;;;;;7.75;97.31;97669.72;105645;1317;22283;-87
2022/12/27 01:31:26;;;;;;;8.80;7.80;;;;;;;7.73;97.04;97673.21;105276;1324;22098;-88
2022/12/27 01:33:56;;;;;;;10.80;7.50;;;;;;;7.77;96.84;97676.41;104951;1322;22227;-87
2022/12/27 01:36:26;;;;;;;10.50;8.10;;;;;;;7.77;96.97;97679.08;105030;1323;22107;-87
2022/12/27 01:38:58;;;;;;;8.70;7.90;;;;;;;7.79;96.72;97683.95;104983;1319;22222;-88
2022/12/27 01:44:38;;;;;;;8.40;7.50;;;;;;;7.82;96.30;97680.94;105065;1324;21928;-92
2022/12/27 01:47:21;;;;;;;7.60;6.90;;;;;;;7.87;96.35;97675.42;105272;1324;22301;-91
2022/12/27 01:49:55;;;;;;;7.60;6.50;;;;;;;7.92;95.43;97689.38;105894;1317;22051;-92
2022/12/27 01:52:29;;;;;;;7.30;6.50;;;;;;;7.90;95.10;97690.52;106086;1287;21914;-90
2022/12/27 01:55:13;;;;;;;6.00;5.40;;;;;;;7.93;95.26;97698.80;105974;1306;23032;-88
2022/12/27 01:57:42;;;;;;;7.00;6.30;;;;;;;7.94;95.16;97703.67;105164;1324;22095;-91
2022/12/27 02:00:11;;;;;;;7.30;5.90;;;;;;;7.96;94.88;97698.98;105544;1322;22859;-89
2022/12/27 02:02:39;;;;;;;7.10;5.50;;;;;;;7.97;94.57;97705.19;105392;1321;22212;-92
2022/12/27 02:05:09;;;;;;;6.10;5.40;;;;;;;8.01;94.56;97706.92;105455;1322;22202;-92
2022/12/27 02:07:49;;;;;;;6.20;5.60;;;;;;;8.01;94.52;97708.52;105659;1321;22859;-89
2022/12/27 02:10:27;;;;;;;7.20;5.80;;;;;;;8.00;94.61;97705.98;106720;1291;22309;31
2022/12/27 02:12:57;;;;;;;6.90;6.20;;;;;;;7.99;94.28;97723.15;104906;1281;22465;-87
2022/12/27 02:15:25;;;;;;;6.80;6.00;;;;;;;7.98;94.25;97715.32;105406;1291;22123;-93
2022/12/27 02:17:53;;;;;;;6.90;6.20;;;;;;;7.97;94.48;97722.20;105387;1298;23066;-92
2022/12/27 02:20:23;;;;;;;6.70;6.00;;;;;;;7.96;94.85;97724.46;105708;1302;22227;-93
2022/12/27 02:26:36;;;;;;;8.20;6.20;;;;;;;7.92;94.44;97724.95;105863;1289;22847;31
2022/12/27 02:29:22;;;;;;;7.90;6.20;;;;;;;7.94;94.43;97740.10;105480;1323;22253;-91
2022/12/27 02:32:00;;;;;;;7.90;6.90;;;;;;;7.90;94.06;97748.03;105425;1315;22235;-90
2022/12/27 02:34:40;;;;;;;7.90;6.80;;;;;;;7.84;94.28;97757.65;105926;1294;22081;-93
2022/12/27 02:37:11;;;;;;;8.70;7.80;;;;;;;7.83;94.51;97756.32;105572;1321;22147;-92
2022/12/27 02:39:44;;;;;;;9.70;8.80;;;;;;;7.85;94.24;97761.78;105883;1306;22233;-91
2022/12/27 02:54:23;;;;;;;8.60;7.80;;;;;;;7.30;96.63;97774.70;105783;1303;22092;-91
2022/12/27 02:57:08;;;;;;;8.90;8.10;;;;;;;7.22;97.56;97782.11;105585;1321;22135;-91
2022/12/27 03:03:27;;;;;;;8.30;7.50;;;;;;;7.02;98.14;97777.23;105707;1315;22709;-91
2022/12/27 03:18:21;;;;;;;9.40;8.50;;;;;;;6.67;99.66;97790.27;105442;1316;22199;-92
2022/12/27 03:26:32;;;;;;;10.00;9.10;;;;;;;6.59;100.00;97794.55;105443;1316;22235;-91
2022/12/27 03:34:47;;;;;;;9.00;8.10;;;;;;;6.56;100.00;97810.66;105317;1324;22168;-92
2022/12/27 03:43:38;;;;;;;8.20;7.10;;;;;;;6.52;100.00;97817.97;105280;1324;22148;-90
2022/12/27 03:46:34;;;;;;;8.60;7.70;;;;;;;6.54;100.00;97821.28;105017;1319;22212;-91
2022/12/27 03:49:08;;;;;;;8.80;7.80;;;;;;;6.49;100.00;97829.86;105036;1320;22127;-90
2022/12/27 03:51:41;;;;;;;7.70;6.90;;;;;;;6.46;100.00;97831.70;105353;1324;22230;-91
2022/12/27 03:54:17;;;;;;;7.80;7.10;;;;;;;6.44;100.00;97837.85;105048;1324;22143;-92
2022/12/27 03:56:45;;;;;;;7.40;6.60;;;;;;;6.44;100.00;97840.74;105194;1321;22149;-85
2022/12/27 03:59:13;;;;;;;8.30;6.40;;;;;;;6.46;100.00;97845.52;105201;1324;22660;-89
2022/12/27 04:01:41;;;;;;;7.90;7.10;;;;;;;6.43;100.00;97852.20;105605;1315;22811;-90
2022/12/27 04:04:09;;;;;;;8.00;7.30;;;;;;;6.39;100.00;97857.03;105259;1323;21920;-88
2022/12/27 04:06:38;;;;;;;7.40;6.70;;;;;;;6.40;100.00;97852.59;105298;1315;22308;-88
2022/12/27 04:36:00;;;;;;;6.00;4.30;;;;;;;5.80;100.00;97908.60;105514;1319;22117;-90
2022/12/27 04:38:33;;;;;;;5.10;3.80;;;;;;;5.63;99.70;97916.24;105049;1324;22136;-90
2022/12/27 05:02:25;;;;;;;5.10;4.40;;;;;;;5.01;100.00;97938.70;105352;1324;22732;-90
2022/12/27 05:15:18;;;;;;;4.70;3.60;;;;;;;4.89;100.00;97962.58;106119;1293;22237;31
2022/12/27 05:17:46;;;;;;;4.90;4.40;;;;;;;4.86;100.00;97966.41;105755;1293;22131;-91
2022/12/27 05:20:14;;;;;;;5.60;4.70;;;;;;;4.86;100.00;97989.89;105458;1318;22127;-93
2022/12/27 05:25:41;;;;;;;5.20;4.70;;;;;;;4.75;100.00;97993.67;105987;1289;22662;31
2022/12/27 05:28:11;;;;;;;4.80;4.20;;;;;;;4.69;100.00;97991.41;105728;1296;22797;-94
2022/12/27 05:30:41;;;;;;;4.50;3.70;;;;;;;4.66;99.99;97997.20;106210;1298;22389;-93
2022/12/27 05:33:09;;;;;;;4.00;3.50;;;;;;;4.61;99.41;98002.56;105555;1309;22041;-91
2022/12/27 05:35:37;;;;;;;4.70;4.00;;;;;;;4.57;99.35;98021.21;105821;1309;23072;-93
2022/12/27 05:38:06;;;;;;;6.60;4.40;;;;;;;4.54;99.75;98021.20;105513;1324;22192;-92
2022/12/27 05:40:34;;;;;;;5.40;4.80;;;;;;;4.54;99.89;98029.84;105587;1288;22453;-91
2022/12/27 05:43:09;;;;;;;5.10;4.40;;;;;;;4.52;99.79;98028.62;105943;1295;22608;31
2022/12/27 05:45:44;;;;;;;4.80;4.00;;;;;;;4.47;99.92;98040.04;106519;1294;22574;31
2022/12/27 05:48:20;;;;;;;6.20;4.70;;;;;;;4.48;99.97;98051.78;106773;1293;22829;31
2022/12/27 05:50:48;;;;;;;4.10;3.70;;;;;;;4.42;99.98;98069.65;106595;1287;22108;-91
2022/12/27 05:53:24;;;;;;;4.90;3.80;;;;;;;4.40;100.00;98067.78;106104;1298;22113;-91
2022/12/27 05:55:54;;;;;;;6.20;4.20;;;;;;;4.34;100.00;98075.52;105517;1312;22244;-87
2022/12/27 05:58:23;;;;;;;4.50;4.10;;;;;;;4.34;100.00;98086.73;105542;1321;22281;-86
2022/12/27 06:00:51;;;;;;;4.40;4.00;;;;;;;4.30;100.00;98093.73;105157;1321;22098;-89
2022/12/27 06:03:20;;;;;;;4.30;3.70;;;;;;;4.21;100.00;98105.50;105734;1314;22264;-89
2022/12/27 06:05:48;;;;;;;4.80;3.80;;;;;;;4.10;100.00;98102.77;105261;1321;22092;-89
2022/12/27 06:08:16;;;;;;;4.70;3.80;;;;;;;4.00;100.00;98105.77;105431;1317;22809;-88
2022/12/27 06:10:44;;;;;;;5.40;3.50;;;;;;;3.88;98.83;98110.65;105240;1324;22203;-88
2022/12/27 06:13:12;;;;;;;4.10;3.50;;;;;;;3.73;97.35;98102.05;105090;1323;22211;-89
2022/12/27 06:15:41;;;;;;;5.60;3.50;;;;;;;3.60;97.02;98119.54;105365;1324;22859;-89
2022/12/27 06:18:09;;;;;;;4.60;3.50;;;;;;;3.50;96.88;98129.70;105289;1324;22219;-89
2022/12/27 06:20:36;;;;;;;5.40;3.80;;;;;;;3.41;96.06;98140.50;105640;1317;22234;-88
2022/12/27 06:23:04;;;;;;;7.20;4.10;;;;;;;3.35;95.95;98146.06;105208;1324;22116;-88
2022/12/27 06:25:32;;;;;;;6.50;3.40;;;;;;;3.29;96.00;98152.86;105019;1324;23008;-87
2022/12/27 06:28:00;;;;;;;6.70;3.90;;;;;;;3.27;96.09;98170.41;105415;1323;22342;-88
2022/12/27 06:30:28;;;;;;;6.70;4.00;;;;;;;3.24;95.88;98187.84;105432;1324;22120;-88
2022/12/27 06:33:02;;;;;;;9.10;4.70;;;;;;;3.21;96.08;98196.59;105383;1317;22109;-89
2022/12/27 06:35:30;;;;;;;7.50;4.30;;;;;;;3.17;96.05;98198.60;105742;1316;22185;-88
2022/12/27 06:37:58;;;;;;;10.20;4.20;;;;;;;3.15;95.49;98193.98;105661;1317;22196;-88
2022/12/27 06:40:26;;;;;;;7.00;4.50;;;;;;;3.12;95.25;98203.73;105128;1324;22246;-88
2022/12/27 06:42:54;;;;;;;9.00;4.80;;;;;;;3.10;95.31;98210.04;104963;1324;22157;-88
2022/12/27 06:45:22;;;;;;;9.80;4.50;;;;;;;3.06;95.60;98223.04;105077;1324;22242;-88
2022/12/27 06:47:50;;;;;;;9.10;5.00;;;;;;;3.04;95.19;98230.06;105336;1316;22776;-89
2022/12/27 06:50:18;;;;;;;10.50;4.80;;;;;;;2.97;95.43;98231.93;105089;1324;22353;-87
2022/12/27 06:52:46;;;;;;;11.80;5.80;;;;;;;2.97;95.26;98240.54;105138;1324;22133;-87
2022/12/27 06:55:14;;;;;;;10.60;5.10;;;;;;;3.00;95.01;98245.06;105334;1324;22298;-88
2022/12/27 06:57:43;;;;;;;11.40;6.30;;;;;;;2.92;95.26;98254.37;105147;1324;22226;-90
2022/12/27 07:00:12;;;;;;;12.70;6.20;;;;;;;2.94;94.60;98256.52;105006;1324;22101;-90
2022/12/27 07:02:40;;;;;;;11.20;6.10;;;;;;;2.92;94.80;98266.78;105304;1324;22246;-90
2022/12/27 07:05:09;;;;;;;13.40;6.00;;;;;;;2.91;94.98;98276.55;104995;1324;22923;-89
2022/12/27 07:07:37;;;;;;;10.10;5.40;;;;;;;2.91;94.86;98285.73;105232;1324;22090;-90
2022/12/27 07:10:05;;;;;;;11.10;6.10;;;;;;;2.91;94.85;98293.36;104958;1324;22154;-90
2022/12/27 07:12:33;;;;;;;15.40;7.10;;;;;;;2.91;94.47;98298.26;105000;1324;23053;-90
2022/12/27 07:15:05;;;;;;;14.20;7.00;;;;;;;2.86;94.58;98303.02;105513;1315;22078;-91
2022/12/27 07:17:34;;;;;;;13.30;7.40;;;;;;;2.91;94.68;98309.98;105106;1324;22099;-90
2022/12/27 07:20:04;;;;;;;14.20;7.70;;;;;;;2.91;94.84;98319.19;104971;1324;22308;-91
2022/12/27 07:22:33;;;;;;;12.10;7.80;;;;;;;2.90;94.69;98325.03;105108;1324;22690;-89
2022/12/27 07:25:01;;;;;;;15.80;8.30;;;;;;;2.88;94.42;98331.65;105032;1324;22239;-90
2022/12/27 07:27:34;;;;;;;16.40;8.20;;;;;;;2.87;94.70;98341.89;105193;1324;22238;-90
2022/12/27 07:30:03;;;;;;;12.00;6.50;;;;;;;2.90;94.61;98351.70;105213;1324;22121;-91
2022/12/27 07:32:32;;;;;;;14.20;9.70;;;;;;;2.92;93.96;98357.61;105407;1324;22304;-88
2022/12/27 07:35:07;;;;;;;18.50;10.40;;;;;;;2.88;94.28;98365.08;102757;1324;5170621;-90
2022/12/27 07:37:36;;;;;;;16.60;9.60;;;;;;;2.89;94.35;98371.64;105338;1322;22206;-90
2022/12/27 07:40:06;;;;;;;14.90;7.20;;;;;;;2.90;94.44;98378.38;105730;1311;22101;-89
2022/12/27 07:42:34;;;;;;;15.80;10.80;;;;;;;2.94;94.26;98383.41;105161;1324;22598;-89
2022/12/27 07:45:03;;;;;;;24.80;14.10;;;;;;;2.96;94.09;98386.73;105420;1324;22091;-92
2022/12/27 07:47:34;;;;;;;15.20;10.30;;;;;;;2.89;94.15;98393.09;105334;1319;22085;-90
2022/12/27 07:50:02;;;;;;;17.40;10.10;;;;;;;2.93;94.36;98398.00;105315;1297;22800;-90
2022/12/27 07:52:30;;;;;;;20.30;11.80;;;;;;;2.93;94.02;98401.70;105132;1324;23032;-90
2022/12/27 07:54:58;;;;;;;17.40;10.20;;;;;;;2.95;93.75;98401.83;105699;1317;22096;-90
2022/12/27 07:57:29;;;;;;;19.00;11.60;;;;;;;2.91;93.59;98408.16;105078;1315;22207;-86
2022/12/27 07:59:58;;;;;;;10.70;7.30;;;;;;;2.91;93.85;98413.86;105487;1317;22478;-91
2022/12/27 08:02:26;;;;;;;11.10;7.10;;;;;;;2.96;92.80;98418.27;105437;1323;22245;-89
2022/12/27 08:04:54;;;;;;;17.50;9.50;;;;;;;2.92;92.56;98425.75;105341;1324;22903;-88
2022/12/27 08:07:24;;;;;;;14.10;8.90;;;;;;;2.93;92.62;98425.52;105006;1324;22103;-91
2022/12/27 08:09:52;;;;;;;17.00;8.90;;;;;;;2.97;93.04;98425.98;105435;1323;22327;-89
2022/12/27 08:12:20;;;;;;;13.90;8.90;;;;;;;3.00;93.04;98427.92;106060;1302;22186;-91
2022/12/27 08:14:48;;;;;;;17.10;10.00;;;;;;;3.00;92.51;98423.13;105459;1318;22183;-94
2022/12/27 08:17:20;;;;;;;17.50;8.90;;;;;;;3.03;92.43;98426.42;105113;1324;22139;-93
2022/12/27 08:19:54;;;;;;;15.90;8.80;;;;;;;3.04;92.39;98433.04;105134;1309;22262;-91
2022/12/27 08:23:09;;;;;;;14.70;9.00;;;;;;;3.08;92.50;98441.85;105332;1287;22064;31
2022/12/27 08:25:37;;;;;;;18.80;10.20;;;;;;;3.11;91.97;98446.83;104917;1326;22129;-92
2022/12/27 08:28:15;;;;;;;20.10;13.50;;;;;;;3.08;91.13;98455.48;105017;1327;22807;-90
2022/12/27 08:30:45;;;;;;;20.00;10.60;;;;;;;3.05;90.98;98456.13;105184;1308;22190;-91
2022/12/27 08:33:14;;;;;;;15.10;10.00;;;;;;;3.05;90.64;98455.30;105277;1288;22197;-87
2022/12/27 08:35:44;;;;;;;13.50;8.90;;;;;;;3.05;90.73;98466.52;105863;1295;22125;-87
2022/12/27 08:38:21;;;;;;;15.30;8.80;;;;;;;3.06;90.97;98479.30;105493;1324;22157;-91
2022/12/27 08:40:49;;;;;;;13.70;8.00;;;;;;;3.05;90.47;98483.85;105379;1314;22260;-90
2022/12/27 08:43:17;;;;;;;11.50;7.10;;;;;;;2.99;90.26;98483.64;105524;1322;22272;-88
2022/12/27 08:45:45;;;;;;;11.80;7.70;;;;;;;2.97;89.15;98486.74;105438;1321;22107;-88
2022/12/27 08:48:14;;;;;;;18.10;7.80;;;;;;;2.92;89.22;98494.68;105493;1321;22103;-82
2022/12/27 08:50:43;;;;;;;15.50;8.50;;;;;;;2.88;89.19;98495.52;105287;1323;22248;-88
2022/12/27 08:53:11;;;;;;;16.20;8.20;;;;;;;2.86;88.76;98491.63;105439;1307;22302;-84
2022/12/27 08:55:38;;;;;;;13.20;7.40;;;;;;;2.83;88.49;98492.20;105871;1300;22243;-84
2022/12/27 08:58:06;;;;;;;13.60;8.00;;;;;;;2.79;88.70;98484.17;105430;1322;22213;-85
2022/12/27 09:00:43;;;;;;;13.60;7.70;;;;;;;2.80;88.91;98498.84;105413;1323;22862;-83
2022/12/27 09:03:11;;;;;;;14.30;8.30;;;;;;;2.82;88.81;98492.17;105346;1316;22242;-86
2022/12/27 09:05:39;;;;;;;14.00;8.10;;;;;;;2.81;88.70;98497.99;105830;1309;22241;-86
2022/12/27 09:08:10;;;;;;;13.20;7.50;;;;;;;2.80;88.20;98504.48;105442;1321;22271;-88
2022/12/27 09:10:38;;;;;;;14.80;10.10;;;;;;;2.83;88.33;98507.36;105427;1316;22199;-87
2022/12/27 09:13:06;;;;;;;15.30;7.90;;;;;;;2.82;87.79;98511.82;105550;1321;22229;-90
2022/12/27 09:15:35;;;;;;;18.60;11.10;;;;;;;2.82;87.43;98507.88;105506;1321;22199;-88
2022/12/27 09:18:05;;;;;;;18.10;11.40;;;;;;;2.86;87.56;98519.57;105595;1321;22106;-91
2022/12/27 09:20:33;;;;;;;16.00;10.20;;;;;;;2.90;87.64;98514.82;105529;1321;22182;-88
2022/12/27 09:23:01;;;;;;;19.20;11.60;;;;;;;2.92;87.37;98516.41;105472;1321;22680;-90
2022/12/27 09:25:29;;;;;;;15.80;9.30;;;;;;;2.94;87.64;98505.20;105618;1314;22192;-89
2022/12/27 09:27:57;;;;;;;13.50;7.50;;;;;;;3.00;87.46;98516.67;105491;1315;22121;-87
2022/12/27 09:30:25;;;;;;;14.10;8.40;;;;;;;3.05;86.19;98512.73;105508;1314;22137;-88
2022/12/27 09:32:53;;;;;;;16.20;8.70;;;;;;;3.04;85.71;98507.23;105853;1299;22848;-85
2022/12/27 09:35:21;;;;;;;14.70;9.10;;;;;;;3.07;85.77;98510.89;105749;1302;22192;-89
2022/12/27 09:37:49;;;;;;;15.20;8.10;;;;;;;3.09;85.73;98516.95;105349;1324;22227;-86
2022/12/27 09:40:19;;;;;;;15.80;9.80;;;;;;;3.14;86.04;98511.44;105738;1309;22099;-90
2022/12/27 09:43:08;;;;;;;17.00;9.50;;;;;;;3.24;85.90;98508.05;105543;1323;23093;-90
2022/12/27 09:45:54;;;;;;;;;;;;;;;3.30;85.67;98512.17;105359;1318;22364;-89
2022/12/27 09:48:40;;;;;;;18.40;8.70;;;;;;;3.32;84.64;98520.02;105707;1323;22243;-85
2022/12/27 09:51:16;;;;;;;17.70;9.00;;;;;;;3.35;84.80;98508.86;104847;1296;22096;-86
2022/12/27 09:54:00;;;;;;;22.70;12.90;;;;;;;3.39;84.80;98510.75;106147;1293;22183;-88
2022/12/27 09:56:31;;;;;;;16.40;9.80;;;;;;;3.45;84.22;98506.55;106482;1295;23029;-91
2022/12/27 09:59:37;;;;;;;13.90;7.90;;;;;;;3.46;84.46;98507.36;106016;1302;22171;-91
2022/12/27 10:02:26;;;;;;;16.00;8.90;;;;;;;3.54;84.56;98502.23;105640;1321;22849;-91
2022/12/27 10:04:57;;;;;;;17.60;8.30;;;;;;;3.66;84.02;98510.42;105169;1311;22349;-92
2022/12/27 10:07:58;;;;;;;15.30;7.60;;;;;;;3.72;82.43;98506.08;105304;1324;22196;-85
2022/12/27 10:10:39;;;;;;;14.00;8.00;;;;;;;3.67;82.25;98517.81;105696;1312;22367;-86
2022/12/27 10:13:20;;;;;;;16.40;8.00;;;;;;;3.62;81.31;98515.92;105397;1322;22181;-90
2022/12/27 10:15:59;;;;;;;13.80;7.30;;;;;;;3.55;81.69;98519.58;105439;1321;22169;-90
2022/12/27 10:19:13;;;;;;;12.50;8.00;;;;;;;3.53;81.90;98509.94;106569;1289;22822;31
2022/12/27 10:22:02;;;;;;;16.30;8.40;;;;;;;3.49;82.23;98506.85;107153;1291;24263;31
2022/12/27 10:24:37;;;;;;;17.80;10.10;;;;;;;3.39;82.77;98493.58;104270;1272;22716;-85
2022/12/27 10:27:23;;;;;;;17.80;10.10;;;;;;;3.49;82.65;98509.88;106058;1295;22388;31
2022/12/27 10:30:12;;;;;;;14.80;8.80;;;;;;;3.51;82.06;98506.30;105077;1325;22291;-87
2022/12/27 10:32:40;;;;;;;14.30;7.00;;;;;;;3.58;81.91;98504.55;105231;1324;22118;-92
2022/12/27 10:35:13;;;;;;;13.60;7.30;;;;;;;3.65;81.38;98515.77;105462;1325;22222;-92
2022/12/27 10:37:42;;;;;;;12.90;7.00;;;;;;;3.74;80.79;98513.64;105738;1317;22244;-88
2022/12/27 10:40:24;;;;;;;15.70;7.60;;;;;;;3.89;80.81;98506.92;105801;1281;22069;-92
2022/12/27 10:43:22;;;;;;;14.20;7.80;;;;;;;4.00;80.03;98501.88;106304;1298;22118;-93
2022/12/27 10:45:50;;;;;;;14.40;8.00;;;;;;;4.10;78.95;98510.27;105597;1321;22205;-92
2022/12/27 10:48:28;;;;;;;16.10;7.90;;;;;;;4.17;78.81;98503.55;106059;1292;22756;-90
2022/12/27 10:51:17;;;;;;;19.30;13.80;;;;;;;4.15;78.10;98510.45;105392;1318;22088;-89
2022/12/27 10:53:47;;;;;;;19.50;12.30;;;;;;;4.16;78.54;98505.50;105173;1321;22087;-91
2022/12/27 10:56:25;;;;;;;14.00;8.30;;;;;;;4.19;78.02;98512.23;105385;1321;22219;-91
2022/12/27 10:59:06;;;;;;;12.50;7.10;;;;;;;4.19;78.16;98511.90;105358;1321;23033;-92
2022/12/27 11:01:34;;;;;;;13.80;7.00;;;;;;;4.23;76.60;98516.17;105282;1321;22264;-92
2022/12/27 11:04:16;;;;;;;13.10;7.20;;;;;;;4.16;75.33;98516.67;105866;1293;22427;-90
2022/12/27 11:07:17;;;;;;;13.20;5.90;;;;;;;4.07;75.03;98513.95;105760;1316;22180;-89
2022/12/27 11:09:45;;;;;;;10.50;6.20;;;;;;;4.06;74.84;98519.96;105313;1324;22903;-87
2022/12/27 11:12:24;;;;;;;10.10;6.30;;;;;;;4.15;74.90;98531.73;105081;1321;22214;-88
2022/12/27 11:14:55;;;;;;;12.40;8.20;;;;;;;4.29;75.14;98530.84;105011;1322;22227;-87
2022/12/27 11:17:28;;;;;;;11.70;6.30;;;;;;;4.46;73.95;98536.56;105149;1323;22129;-89
2022/12/27 11:19:59;;;;;;;11.20;6.90;;;;;;;4.57;72.53;98533.30;105022;1324;22211;-91
2022/12/27 11:22:27;;;;;;;10.90;6.60;;;;;;;4.67;71.68;98524.55;105091;1324;22087;-90
2022/12/27 11:24:58;;;;;;;11.30;6.80;;;;;;;4.68;71.46;98534.80;105039;1325;22098;-90
2022/12/27 11:27:28;;;;;;;11.10;7.00;;;;;;;4.74;70.44;98527.91;105021;1325;22198;-89
2022/12/27 11:29:58;;;;;;;14.00;8.00;;;;;;;4.74;70.74;98518.23;105272;1323;22191;-90
2022/12/27 11:32:26;;;;;;;12.90;7.10;;;;;;;5.23;70.89;98521.55;105227;1309;22111;-83
2022/12/27 11:34:56;;;;;;;9.20;5.70;;;;;;;6.01;67.86;98526.91;105912;1303;22081;-91
2022/12/27 11:37:30;;;;;;;10.20;6.60;;;;;;;6.48;64.68;98529.93;105761;1291;23374;31
2022/12/27 11:40:34;;;;;;;10.70;5.60;;;;;;;7.21;63.89;98518.48;106029;1298;22941;-91
2022/12/27 11:43:09;;;;;;;11.80;6.80;;;;;;;6.63;64.24;98517.68;105856;1288;22137;-92
2022/12/27 11:45:46;;;;;;;10.10;6.60;;;;;;;6.93;64.30;98521.39;105656;1288;22208;-89
2022/12/27 11:48:21;;;;;;;10.90;5.90;;;;;;;7.03;62.86;98516.73;105731;1295;22197;-91
2022/12/27 11:51:16;;;;;;;13.00;8.20;;;;;;;7.07;62.07;98511.83;105647;1321;22228;-88
2022/12/27 11:54:03;;;;;;;10.00;6.30;;;;;;;6.71;61.54;98519.02;105762;1305;22941;-93
2022/12/27 11:56:37;;;;;;;13.10;7.90;;;;;;;6.75;60.63;98524.24;105768;1292;22157;-90
2022/12/27 11:59:27;;;;;;;11.40;6.20;;;;;;;6.76;61.56;98522.26;105819;1285;22351;-89
2022/12/27 12:02:40;;;;;;;7.40;5.40;;;;;;;6.03;60.38;98532.11;105741;1287;22499;-88
2022/12/27 12:05:30;;;;;;;12.80;6.70;;;;;;;5.35;62.42;98522.92;106527;1276;22333;-93
2022/12/27 12:08:20;;;;;;;8.50;6.10;;;;;;;5.05;63.76;98524.11;106465;1287;22168;-91
2022/12/27 12:11:35;;;;;;;9.90;6.70;;;;;;;4.84;63.12;98535.20;105699;1298;23148;-91
2022/12/27 12:14:33;;;;;;;11.40;7.40;;;;;;;4.61;62.93;98538.34;105389;1324;21899;-86
2022/12/27 12:17:27;;;;;;;9.30;6.10;;;;;;;4.46;63.79;98548.04;105521;1295;22505;-91
2022/12/27 12:20:33;;;;;;;13.00;7.40;;;;;;;4.35;64.16;98546.05;105999;1292;23614;31
2022/12/27 12:23:39;;;;;;;15.10;8.60;;;;;;;4.29;65.10;98535.55;104756;1287;23666;31
2022/12/27 12:26:25;;;;;;;12.40;8.60;;;;;;;4.27;65.03;98537.43;100520;1280;22364;-85
2022/12/27 12:29:32;;;;;;;14.00;9.90;;;;;;;4.24;64.81;98531.41;107070;1279;22268;31
2022/12/27 12:32:14;;;;;;;24.30;16.00;;;;;;;4.20;64.73;98529.59;106798;1292;22543;-92
2022/12/27 12:35:20;;;;;;;24.30;14.10;;;;;;;4.20;65.09;98528.13;106250;1288;22323;-89
2022/12/27 12:38:03;;;;;;;20.40;11.10;;;;;;;4.20;65.05;98525.79;105767;1312;22100;-89
2022/12/27 12:40:53;;;;;;;17.70;10.80;;;;;;;4.20;65.28;98525.79;105625;1324;22930;-89
2022/12/27 12:43:27;;;;;;;10.90;7.50;;;;;;;4.20;64.98;98524.56;105609;1321;22248;-91
2022/12/27 12:46:04;;;;;;;9.50;7.30;;;;;;;4.20;64.98;98527.34;106402;1314;21950;-88
2022/12/27 12:48:44;;;;;;;22.50;14.60;;;;;;;4.21;65.27;98524.46;106275;1298;22166;-91
2022/12/27 12:51:17;;;;;;;42.10;24.40;;;;;;;4.20;64.94;98533.48;106329;1308;23111;-93
2022/12/27 12:54:11;;;;;;;34.70;19.70;;;;;;;4.16;64.79;98529.26;105703;1323;22101;-92
2022/12/27 12:57:12;;;;;;;14.40;9.10;;;;;;;4.11;65.23;98530.23;105861;1311;22078;-91
2022/12/27 13:00:18;;;;;;;17.40;10.60;;;;;;;4.12;64.81;98534.08;105415;1318;22213;-91
2022/12/27 13:02:55;;;;;;;13.80;9.70;;;;;;;4.11;64.39;98546.66;106361;1295;22183;-92
2022/12/27 13:05:29;;;;;;;16.40;11.10;;;;;;;4.35;63.78;98545.14;105595;1321;22211;-91
2022/12/27 13:08:09;;;;;;;26.20;15.40;;;;;;;4.92;63.53;98543.16;105541;1316;22819;-89
2022/12/27 13:10:52;;;;;;;19.30;13.30;;;;;;;5.40;62.03;98550.84;105573;1318;22209;-92
2022/12/27 13:13:49;;;;;;;20.40;15.30;;;;;;;5.54;61.72;98551.91;105707;1317;22290;-90
2022/12/27 13:16:41;;;;;;;19.80;13.00;;;;;;;5.52;61.76;98558.04;105425;1301;22191;-92
2022/12/27 13:19:09;;;;;;;18.60;11.80;;;;;;;5.80;60.33;98545.73;105327;1324;22213;-87
2022/12/27 13:21:46;;;;;;;19.20;11.70;;;;;;;5.86;59.50;98553.39;105312;1324;22101;-88
2022/12/27 13:24:42;;;;;;;14.20;10.80;;;;;;;6.12;58.41;98555.43;105671;1317;22072;-89
2022/12/27 13:27:34;;;;;;;12.00;7.80;;;;;;;5.98;59.42;98556.62;105676;1304;22264;-91
2022/12/27 13:30:20;;;;;;;15.40;10.10;;;;;;;6.40;58.98;98555.67;105532;1305;22164;-89
2022/12/27 13:33:19;;;;;;;13.90;10.20;;;;;;;7.39;56.67;98556.30;105259;1324;22231;-90
2022/12/27 13:36:25;;;;;;;14.80;11.20;;;;;;;7.71;55.11;98555.04;105416;1324;22254;-91
2022/12/27 13:39:11;;;;;;;13.50;9.00;;;;;;;7.07;54.98;98557.33;104848;1324;22225;-88
2022/12/27 13:41:45;;;;;;;23.70;15.60;;;;;;;6.23;56.50;98560.67;105053;1323;22247;-87
2022/12/27 13:44:28;;;;;;;19.30;13.80;;;;;;;5.68;57.70;98562.02;105337;1323;22103;-88
2022/12/27 13:47:11;;;;;;;16.80;12.80;;;;;;;5.23;58.56;98572.05;105290;1324;22219;-88
2022/12/27 13:49:57;;;;;;;16.60;12.30;;;;;;;4.91;59.54;98567.61;105647;1302;22930;-89
2022/12/27 13:52:54;;;;;;;17.30;12.90;;;;;;;4.71;60.28;98573.02;105688;1293;22299;-87
2022/12/27 13:55:48;;;;;;;13.90;10.40;;;;;;;4.56;60.89;98576.05;105370;1323;22224;-92